sensor_id;sensor_type;location;lat;lon;timestamp;pressure;altitude;pressure_sealevel;temperature;humidity
11329;BME280;5719;42.714;23.732;2023-04-27T00:00:00;94039.19;;;10.00;75.76
11329;BME280;5719;42.714;23.732;2023-04-27T00:02:28;94040.00;;;9.89;76.30
11329;BME280;5719;42.714;23.732;2023-04-27T00:04:55;94037.78;;;9.96;75.09
11329;BME280;5719;42.714;23.732;2023-04-27T00:07:22;94036.50;;;10.01;75.20
11329;BME280;5719;42.714;23.732;2023-04-27T00:09:48;94044.13;;;10.03;75.12
11329;BME280;5719;42.714;23.732;2023-04-27T00:12:16;94045.75;;;10.04;74.48
11329;BME280;5719;42.714;23.732;2023-04-27T00:14:43;94045.75;;;10.04;73.96
11329;BME280;5719;42.714;23.732;2023-04-27T00:17:10;94042.69;;;9.99;74.92
11329;BME280;5719;42.714;23.732;2023-04-27T00:19:38;94047.41;;;9.94;74.95
11329;BME280;5719;42.714;23.732;2023-04-27T00:22:06;94047.84;;;9.88;75.05
11329;BME280;5719;42.714;23.732;2023-04-27T00:24:33;94039.53;;;9.84;74.46
11329;BME280;5719;42.714;23.732;2023-04-27T00:27:00;94040.84;;;9.90;74.48
11329;BME280;5719;42.714;23.732;2023-04-27T00:29:27;94045.19;;;9.89;75.50
11329;BME280;5719;42.714;23.732;2023-04-27T00:31:54;94046.81;;;9.90;75.67
11329;BME280;5719;42.714;23.732;2023-04-27T00:34:21;94041.06;;;9.87;74.67
11329;BME280;5719;42.714;23.732;2023-04-27T00:36:49;94042.84;;;9.86;75.50
11329;BME280;5719;42.714;23.732;2023-04-27T00:39:16;94041.31;;;9.83;74.86
11329;BME280;5719;42.714;23.732;2023-04-27T00:41:43;94039.75;;;9.81;74.94
11329;BME280;5719;42.714;23.732;2023-04-27T00:44:10;94041.53;;;9.80;76.20
11329;BME280;5719;42.714;23.732;2023-04-27T00:46:36;94050.91;;;9.81;75.14
11329;BME280;5719;42.714;23.732;2023-04-27T00:49:04;94052.56;;;9.82;75.91
11329;BME280;5719;42.714;23.732;2023-04-27T00:51:30;94050.91;;;9.81;75.61
11329;BME280;5719;42.714;23.732;2023-04-27T00:53:59;94047.16;;;9.74;74.90
11329;BME280;5719;42.714;23.732;2023-04-27T00:56:27;94051.69;;;9.49;75.79
11329;BME280;5719;42.714;23.732;2023-04-27T00:58:53;94053.09;;;9.53;76.28
11329;BME280;5719;42.714;23.732;2023-04-27T01:01:20;94063.78;;;9.59;75.40
11329;BME280;5719;42.714;23.732;2023-04-27T01:03:47;94047.47;;;9.59;76.21
11329;BME280;5719;42.714;23.732;2023-04-27T01:06:14;94058.28;;;9.64;76.09
11329;BME280;5719;42.714;23.732;2023-04-27T01:08:41;94055.72;;;9.64;75.76
11329;BME280;5719;42.714;23.732;2023-04-27T01:11:10;94049.81;;;9.62;76.21
11329;BME280;5719;42.714;23.732;2023-04-27T01:13:36;94063.09;;;9.57;75.89
11329;BME280;5719;42.714;23.732;2023-04-27T01:16:04;94057.69;;;9.49;74.59
11329;BME280;5719;42.714;23.732;2023-04-27T01:18:31;94056.69;;;9.28;74.94
11329;BME280;5719;42.714;23.732;2023-04-27T01:20:58;94053.84;;;9.20;77.29
11329;BME280;5719;42.714;23.732;2023-04-27T01:23:27;94058.09;;;8.97;78.02
11329;BME280;5719;42.714;23.732;2023-04-27T01:25:53;94066.03;;;8.47;80.10
11329;BME280;5719;42.714;23.732;2023-04-27T01:28:21;94068.31;;;8.38;81.43
11329;BME280;5719;42.714;23.732;2023-04-27T01:30:47;94067.00;;;8.33;82.20
11329;BME280;5719;42.714;23.732;2023-04-27T01:33:14;94068.97;;;8.53;81.59
11329;BME280;5719;42.714;23.732;2023-04-27T01:35:41;94069.88;;;8.41;81.38
11329;BME280;5719;42.714;23.732;2023-04-27T01:38:08;94070.03;;;8.51;80.10
11329;BME280;5719;42.714;23.732;2023-04-27T01:40:37;94072.94;;;8.46;80.16
11329;BME280;5719;42.714;23.732;2023-04-27T01:43:04;94069.66;;;8.44;81.43
11329;BME280;5719;42.714;23.732;2023-04-27T01:45:30;94075.84;;;8.65;80.49
11329;BME280;5719;42.714;23.732;2023-04-27T01:47:57;94063.03;;;8.76;80.31
11329;BME280;5719;42.714;23.732;2023-04-27T01:50:24;94071.09;;;8.96;79.69
11329;BME280;5719;42.714;23.732;2023-04-27T01:52:51;94071.47;;;9.02;80.22
11329;BME280;5719;42.714;23.732;2023-04-27T01:55:18;94070.44;;;9.05;78.65
11329;BME280;5719;42.714;23.732;2023-04-27T01:57:47;94079.31;;;9.01;77.33
11329;BME280;5719;42.714;23.732;2023-04-27T02:00:14;94066.75;;;8.96;76.12
11329;BME280;5719;42.714;23.732;2023-04-27T02:02:42;94070.88;;;8.99;76.60
11329;BME280;5719;42.714;23.732;2023-04-27T02:05:09;94065.94;;;8.72;76.87
11329;BME280;5719;42.714;23.732;2023-04-27T02:07:36;94083.81;;;8.01;81.02
11329;BME280;5719;42.714;23.732;2023-04-27T02:10:04;94087.63;;;7.82;80.47
11329;BME280;5719;42.714;23.732;2023-04-27T02:12:31;94082.06;;;7.88;81.38
11329;BME280;5719;42.714;23.732;2023-04-27T02:14:59;94087.91;;;7.90;81.30
11329;BME280;5719;42.714;23.732;2023-04-27T02:17:27;94090.91;;;7.97;81.34
11329;BME280;5719;42.714;23.732;2023-04-27T02:19:55;94085.78;;;7.72;82.15
11329;BME280;5719;42.714;23.732;2023-04-27T02:22:22;94084.13;;;7.46;84.21
11329;BME280;5719;42.714;23.732;2023-04-27T02:24:49;94088.41;;;7.20;85.48
11329;BME280;5719;42.714;23.732;2023-04-27T02:27:16;94081.50;;;7.20;86.35
11329;BME280;5719;42.714;23.732;2023-04-27T02:29:43;94088.97;;;7.11;85.85
11329;BME280;5719;42.714;23.732;2023-04-27T02:32:11;94099.50;;;7.20;85.99
11329;BME280;5719;42.714;23.732;2023-04-27T02:34:38;94097.44;;;7.25;85.38
11329;BME280;5719;42.714;23.732;2023-04-27T02:37:06;94092.09;;;7.16;86.91
11329;BME280;5719;42.714;23.732;2023-04-27T02:39:32;94091.50;;;7.25;86.07
11329;BME280;5719;42.714;23.732;2023-04-27T02:41:59;94080.59;;;7.34;84.20
11329;BME280;5719;42.714;23.732;2023-04-27T02:44:27;94097.28;;;7.28;85.15
11329;BME280;5719;42.714;23.732;2023-04-27T02:46:54;94101.16;;;7.34;84.80
11329;BME280;5719;42.714;23.732;2023-04-27T02:49:22;94108.47;;;7.01;86.14
11329;BME280;5719;42.714;23.732;2023-04-27T02:51:49;94101.53;;;7.03;86.36
11329;BME280;5719;42.714;23.732;2023-04-27T02:54:16;94109.09;;;6.92;85.39
11329;BME280;5719;42.714;23.732;2023-04-27T02:56:43;94117.31;;;6.97;86.17
11329;BME280;5719;42.714;23.732;2023-04-27T02:59:10;94114.84;;;6.95;86.47
11329;BME280;5719;42.714;23.732;2023-04-27T03:01:36;94118.88;;;6.72;86.62
11329;BME280;5719;42.714;23.732;2023-04-27T03:04:04;94120.81;;;6.69;87.30
11329;BME280;5719;42.714;23.732;2023-04-27T03:06:32;94118.25;;;6.69;86.24
11329;BME280;5719;42.714;23.732;2023-04-27T03:08:59;94122.13;;;6.62;86.18
11329;BME280;5719;42.714;23.732;2023-04-27T03:11:26;94134.09;;;6.75;86.25
11329;BME280;5719;42.714;23.732;2023-04-27T03:13:52;94127.22;;;7.03;85.08
11329;BME280;5719;42.714;23.732;2023-04-27T03:16:19;94125.09;;;7.22;83.41
11329;BME280;5719;42.714;23.732;2023-04-27T03:18:46;94121.88;;;7.06;83.71
11329;BME280;5719;42.714;23.732;2023-04-27T03:21:13;94124.38;;;7.20;83.23
11329;BME280;5719;42.714;23.732;2023-04-27T03:23:42;94126.88;;;7.34;82.55
11329;BME280;5719;42.714;23.732;2023-04-27T03:26:11;94131.44;;;7.43;80.57
11329;BME280;5719;42.714;23.732;2023-04-27T03:28:38;94138.44;;;7.54;80.56
11329;BME280;5719;42.714;23.732;2023-04-27T03:31:06;94140.19;;;7.66;79.51
11329;BME280;5719;42.714;23.732;2023-04-27T03:33:33;94145.00;;;7.58;78.84
11329;BME280;5719;42.714;23.732;2023-04-27T03:36:01;94146.06;;;7.55;78.82
11329;BME280;5719;42.714;23.732;2023-04-27T03:38:29;94154.94;;;7.64;79.25
11329;BME280;5719;42.714;23.732;2023-04-27T03:40:58;94142.38;;;7.72;78.37
11329;BME280;5719;42.714;23.732;2023-04-27T03:43:25;94147.72;;;7.69;77.62
11329;BME280;5719;42.714;23.732;2023-04-27T03:45:52;94164.41;;;7.76;77.91
11329;BME280;5719;42.714;23.732;2023-04-27T03:48:19;94157.91;;;7.70;77.93
11329;BME280;5719;42.714;23.732;2023-04-27T03:50:47;94149.66;;;7.53;77.62
11329;BME280;5719;42.714;23.732;2023-04-27T03:53:14;94156.25;;;7.57;78.40
11329;BME280;5719;42.714;23.732;2023-04-27T03:55:42;94165.84;;;7.67;78.26
11329;BME280;5719;42.714;23.732;2023-04-27T03:58:10;94166.16;;;7.75;78.30
11329;BME280;5719;42.714;23.732;2023-04-27T04:00:38;94168.53;;;7.78;78.88
11329;BME280;5719;42.714;23.732;2023-04-27T04:03:05;94175.22;;;7.81;78.60
11329;BME280;5719;42.714;23.732;2023-04-27T04:05:33;94176.56;;;7.86;79.23
11329;BME280;5719;42.714;23.732;2023-04-27T04:07:59;94170.19;;;7.92;79.07
11329;BME280;5719;42.714;23.732;2023-04-27T04:10:26;94184.50;;;7.96;78.98
11329;BME280;5719;42.714;23.732;2023-04-27T04:12:53;94185.22;;;7.98;80.58
11329;BME280;5719;42.714;23.732;2023-04-27T04:15:22;94186.44;;;8.05;81.43
11329;BME280;5719;42.714;23.732;2023-04-27T04:17:48;94190.91;;;8.16;80.40
11329;BME280;5719;42.714;23.732;2023-04-27T04:20:15;94194.91;;;8.20;80.86
11329;BME280;5719;42.714;23.732;2023-04-27T04:22:42;94194.50;;;8.26;80.42
11329;BME280;5719;42.714;23.732;2023-04-27T04:25:09;94200.25;;;8.17;79.80
11329;BME280;5719;42.714;23.732;2023-04-27T04:27:37;94200.06;;;8.07;78.43
11329;BME280;5719;42.714;23.732;2023-04-27T04:30:05;94197.22;;;7.72;78.45
11329;BME280;5719;42.714;23.732;2023-04-27T04:32:34;94203.28;;;7.05;81.84
11329;BME280;5719;42.714;23.732;2023-04-27T04:35:02;94211.25;;;6.46;86.50
11329;BME280;5719;42.714;23.732;2023-04-27T04:37:32;94203.19;;;6.37;89.04
11329;BME280;5719;42.714;23.732;2023-04-27T04:39:59;94212.94;;;6.32;88.45
11329;BME280;5719;42.714;23.732;2023-04-27T04:42:25;94212.09;;;6.60;86.19
11329;BME280;5719;42.714;23.732;2023-04-27T04:44:53;94210.53;;;6.44;86.64
11329;BME280;5719;42.714;23.732;2023-04-27T04:47:19;94214.84;;;6.43;86.51
11329;BME280;5719;42.714;23.732;2023-04-27T04:49:48;94215.75;;;5.70;91.03
11329;BME280;5719;42.714;23.732;2023-04-27T04:52:15;94224.59;;;5.94;89.01
11329;BME280;5719;42.714;23.732;2023-04-27T04:54:42;94224.28;;;5.84;89.55
11329;BME280;5719;42.714;23.732;2023-04-27T04:57:09;94231.41;;;5.79;90.89
11329;BME280;5719;42.714;23.732;2023-04-27T04:59:36;94231.81;;;5.58;92.34
11329;BME280;5719;42.714;23.732;2023-04-27T05:02:03;94233.56;;;5.57;92.14
11329;BME280;5719;42.714;23.732;2023-04-27T05:04:30;94242.06;;;5.58;91.69
11329;BME280;5719;42.714;23.732;2023-04-27T05:06:58;94233.69;;;5.40;91.11
11329;BME280;5719;42.714;23.732;2023-04-27T05:09:25;94237.31;;;5.36;93.68
11329;BME280;5719;42.714;23.732;2023-04-27T05:11:52;94252.50;;;5.84;94.00
11329;BME280;5719;42.714;23.732;2023-04-27T05:14:19;94247.00;;;6.06;91.18
11329;BME280;5719;42.714;23.732;2023-04-27T05:16:46;94249.91;;;5.86;90.34
11329;BME280;5719;42.714;23.732;2023-04-27T05:19:13;94258.50;;;5.69;88.19
11329;BME280;5719;42.714;23.732;2023-04-27T05:21:43;94254.50;;;5.79;91.49
11329;BME280;5719;42.714;23.732;2023-04-27T05:24:11;94259.94;;;6.05;89.71
11329;BME280;5719;42.714;23.732;2023-04-27T05:26:38;94252.06;;;6.50;86.56
11329;BME280;5719;42.714;23.732;2023-04-27T05:29:05;94247.06;;;7.04;84.34
11329;BME280;5719;42.714;23.732;2023-04-27T05:31:32;94252.25;;;7.57;80.63
11329;BME280;5719;42.714;23.732;2023-04-27T05:33:59;94246.97;;;7.85;78.01
11329;BME280;5719;42.714;23.732;2023-04-27T05:36:26;94257.84;;;7.76;75.69
11329;BME280;5719;42.714;23.732;2023-04-27T05:38:53;94249.47;;;7.60;74.59
11329;BME280;5719;42.714;23.732;2023-04-27T05:41:22;94250.44;;;7.45;76.74
11329;BME280;5719;42.714;23.732;2023-04-27T05:43:49;94249.03;;;7.27;76.09
11329;BME280;5719;42.714;23.732;2023-04-27T05:46:17;94254.59;;;6.93;77.82
11329;BME280;5719;42.714;23.732;2023-04-27T05:48:45;94257.66;;;6.85;80.93
11329;BME280;5719;42.714;23.732;2023-04-27T05:51:12;94256.81;;;6.70;80.32
11329;BME280;5719;42.714;23.732;2023-04-27T05:53:39;94252.25;;;6.75;82.65
11329;BME280;5719;42.714;23.732;2023-04-27T05:56:06;94257.41;;;6.61;81.02
11329;BME280;5719;42.714;23.732;2023-04-27T05:58:35;94261.63;;;6.76;79.45
11329;BME280;5719;42.714;23.732;2023-04-27T06:01:02;94253.50;;;6.97;78.78
11329;BME280;5719;42.714;23.732;2023-04-27T06:03:29;94259.38;;;7.13;79.44
11329;BME280;5719;42.714;23.732;2023-04-27T06:05:58;94257.34;;;7.45;78.46
11329;BME280;5719;42.714;23.732;2023-04-27T06:08:25;94269.75;;;7.38;76.79
11329;BME280;5719;42.714;23.732;2023-04-27T06:10:52;94269.03;;;7.36;76.27
11329;BME280;5719;42.714;23.732;2023-04-27T06:13:19;94265.22;;;7.15;78.61
11329;BME280;5719;42.714;23.732;2023-04-27T06:15:48;94263.09;;;7.21;76.66
11329;BME280;5719;42.714;23.732;2023-04-27T06:18:15;94266.22;;;7.26;76.15
11329;BME280;5719;42.714;23.732;2023-04-27T06:20:41;94263.59;;;7.00;78.34
11329;BME280;5719;42.714;23.732;2023-04-27T06:23:08;94264.72;;;6.96;78.70
11329;BME280;5719;42.714;23.732;2023-04-27T06:25:35;94261.34;;;6.81;78.78
11329;BME280;5719;42.714;23.732;2023-04-27T06:28:04;94267.75;;;6.88;80.16
11329;BME280;5719;42.714;23.732;2023-04-27T06:30:31;94264.56;;;6.84;79.50
11329;BME280;5719;42.714;23.732;2023-04-27T06:33:00;94270.72;;;7.23;82.02
11329;BME280;5719;42.714;23.732;2023-04-27T06:35:27;94276.50;;;7.80;80.13
11329;BME280;5719;42.714;23.732;2023-04-27T06:37:54;94275.34;;;8.23;80.13
11329;BME280;5719;42.714;23.732;2023-04-27T06:40:24;94263.75;;;8.68;77.14
11329;BME280;5719;42.714;23.732;2023-04-27T06:42:51;94254.63;;;9.13;73.53
11329;BME280;5719;42.714;23.732;2023-04-27T06:45:18;94272.69;;;9.37;70.93
11329;BME280;5719;42.714;23.732;2023-04-27T06:47:45;94267.66;;;9.59;71.06
11329;BME280;5719;42.714;23.732;2023-04-27T06:50:14;94268.22;;;9.75;69.66
11329;BME280;5719;42.714;23.732;2023-04-27T06:52:41;94270.44;;;10.04;71.38
11329;BME280;5719;42.714;23.732;2023-04-27T06:55:09;94264.31;;;10.28;68.76
11329;BME280;5719;42.714;23.732;2023-04-27T06:57:35;94259.06;;;10.30;66.70
11329;BME280;5719;42.714;23.732;2023-04-27T07:00:03;94258.59;;;10.47;67.04
11329;BME280;5719;42.714;23.732;2023-04-27T07:02:30;94260.41;;;10.69;66.48
11329;BME280;5719;42.714;23.732;2023-04-27T07:04:57;94258.75;;;10.79;65.96
11329;BME280;5719;42.714;23.732;2023-04-27T07:07:25;94253.94;;;10.97;64.68
11329;BME280;5719;42.714;23.732;2023-04-27T07:09:52;94251.59;;;10.94;63.87
11329;BME280;5719;42.714;23.732;2023-04-27T07:12:19;94255.59;;;10.98;63.29
11329;BME280;5719;42.714;23.732;2023-04-27T07:14:46;94258.75;;;10.90;63.93
11329;BME280;5719;42.714;23.732;2023-04-27T07:17:15;94254.06;;;11.17;64.23
11329;BME280;5719;42.714;23.732;2023-04-27T07:19:42;94254.22;;;11.59;62.54
11329;BME280;5719;42.714;23.732;2023-04-27T07:22:09;94264.34;;;11.73;60.69
11329;BME280;5719;42.714;23.732;2023-04-27T07:24:37;94260.06;;;11.29;56.68
11329;BME280;5719;42.714;23.732;2023-04-27T07:27:04;94256.06;;;11.14;59.42
11329;BME280;5719;42.714;23.732;2023-04-27T07:29:31;94250.91;;;11.14;56.28
11329;BME280;5719;42.714;23.732;2023-04-27T07:31:58;94241.72;;;11.21;54.50
11329;BME280;5719;42.714;23.732;2023-04-27T07:34:25;94238.56;;;11.06;56.59
11329;BME280;5719;42.714;23.732;2023-04-27T07:36:52;94236.91;;;11.59;56.61
11329;BME280;5719;42.714;23.732;2023-04-27T07:39:19;94249.59;;;11.73;54.79
11329;BME280;5719;42.714;23.732;2023-04-27T07:41:48;94240.22;;;12.25;53.18
11329;BME280;5719;42.714;23.732;2023-04-27T07:44:16;94243.22;;;12.71;52.10
11329;BME280;5719;42.714;23.732;2023-04-27T07:46:44;94239.81;;;12.71;52.20
11329;BME280;5719;42.714;23.732;2023-04-27T07:49:11;94246.06;;;12.06;53.79
11329;BME280;5719;42.714;23.732;2023-04-27T07:51:39;94244.13;;;11.88;53.51
11329;BME280;5719;42.714;23.732;2023-04-27T07:54:06;94236.38;;;11.88;52.20
11329;BME280;5719;42.714;23.732;2023-04-27T07:56:33;94253.50;;;11.79;53.87
11329;BME280;5719;42.714;23.732;2023-04-27T07:59:01;94245.88;;;11.44;53.93
11329;BME280;5719;42.714;23.732;2023-04-27T08:01:28;94253.00;;;10.87;53.84
11329;BME280;5719;42.714;23.732;2023-04-27T08:03:55;94253.25;;;10.72;55.64
11329;BME280;5719;42.714;23.732;2023-04-27T08:06:22;94251.56;;;10.49;54.71
11329;BME280;5719;42.714;23.732;2023-04-27T08:08:49;94245.97;;;10.66;55.59
11329;BME280;5719;42.714;23.732;2023-04-27T08:11:16;94247.94;;;10.52;56.31
11329;BME280;5719;42.714;23.732;2023-04-27T08:13:43;94246.09;;;10.19;57.48
11329;BME280;5719;42.714;23.732;2023-04-27T08:16:11;94243.34;;;10.44;57.81
11329;BME280;5719;42.714;23.732;2023-04-27T08:18:38;94232.66;;;10.82;57.00
11329;BME280;5719;42.714;23.732;2023-04-27T08:21:05;94240.78;;;10.89;58.75
11329;BME280;5719;42.714;23.732;2023-04-27T08:23:31;94235.63;;;10.77;56.64
11329;BME280;5719;42.714;23.732;2023-04-27T08:26:00;94242.56;;;10.99;54.05
11329;BME280;5719;42.714;23.732;2023-04-27T08:28:27;94234.88;;;11.20;53.84
11329;BME280;5719;42.714;23.732;2023-04-27T08:30:53;94231.44;;;11.30;53.92
11329;BME280;5719;42.714;23.732;2023-04-27T08:33:22;94232.66;;;11.15;53.37
11329;BME280;5719;42.714;23.732;2023-04-27T08:35:49;94235.47;;;10.68;55.66
11329;BME280;5719;42.714;23.732;2023-04-27T08:38:16;94241.72;;;10.76;55.55
11329;BME280;5719;42.714;23.732;2023-04-27T08:40:43;94232.44;;;10.74;55.56
11329;BME280;5719;42.714;23.732;2023-04-27T08:43:10;94231.81;;;11.15;55.46
11329;BME280;5719;42.714;23.732;2023-04-27T08:45:38;94235.06;;;11.50;52.41
11329;BME280;5719;42.714;23.732;2023-04-27T08:48:10;94230.88;;;11.81;54.31
11329;BME280;5719;42.714;23.732;2023-04-27T08:50:43;94224.66;;;12.46;51.79
11329;BME280;5719;42.714;23.732;2023-04-27T08:53:16;94224.41;;;12.07;52.01
11329;BME280;5719;42.714;23.732;2023-04-27T08:55:43;94235.28;;;12.01;52.28
11329;BME280;5719;42.714;23.732;2023-04-27T08:58:10;94233.00;;;12.08;52.02
11329;BME280;5719;42.714;23.732;2023-04-27T09:00:37;94238.13;;;12.19;50.70
11329;BME280;5719;42.714;23.732;2023-04-27T09:03:06;94238.38;;;12.37;51.37
11329;BME280;5719;42.714;23.732;2023-04-27T09:05:33;94241.03;;;12.46;50.40
11329;BME280;5719;42.714;23.732;2023-04-27T09:08:03;94242.56;;;13.00;50.05
11329;BME280;5719;42.714;23.732;2023-04-27T09:10:43;94246.16;;;12.88;47.98
11329;BME280;5719;42.714;23.732;2023-04-27T09:13:10;94242.78;;;12.66;48.14
11329;BME280;5719;42.714;23.732;2023-04-27T09:15:42;94237.88;;;12.63;47.91
11329;BME280;5719;42.714;23.732;2023-04-27T09:18:14;94231.59;;;12.04;48.31
11329;BME280;5719;42.714;23.732;2023-04-27T09:20:42;94231.44;;;12.37;49.56
11329;BME280;5719;42.714;23.732;2023-04-27T09:23:22;94237.34;;;13.00;48.44
11329;BME280;5719;42.714;23.732;2023-04-27T09:25:50;94223.25;;;12.62;48.43
11329;BME280;5719;42.714;23.732;2023-04-27T09:28:17;94236.66;;;12.98;48.60
11329;BME280;5719;42.714;23.732;2023-04-27T09:30:50;94236.38;;;13.01;49.85
11329;BME280;5719;42.714;23.732;2023-04-27T09:33:22;94235.53;;;12.60;47.74
11329;BME280;5719;42.714;23.732;2023-04-27T09:35:49;94231.28;;;13.10;48.35
11329;BME280;5719;42.714;23.732;2023-04-27T09:38:18;94226.56;;;13.44;47.48
11329;BME280;5719;42.714;23.732;2023-04-27T09:40:46;94230.00;;;13.35;45.09
11329;BME280;5719;42.714;23.732;2023-04-27T09:43:13;94222.47;;;13.32;46.36
11329;BME280;5719;42.714;23.732;2023-04-27T09:45:40;94227.00;;;13.40;43.79
11329;BME280;5719;42.714;23.732;2023-04-27T09:48:08;94226.63;;;13.63;43.52
11329;BME280;5719;42.714;23.732;2023-04-27T09:50:37;94216.38;;;13.71;42.40
11329;BME280;5719;42.714;23.732;2023-04-27T09:53:06;94222.28;;;14.31;41.99
11329;BME280;5719;42.714;23.732;2023-04-27T09:55:39;94221.31;;;14.51;43.08
11329;BME280;5719;42.714;23.732;2023-04-27T09:58:30;94219.16;;;14.84;41.91
11329;BME280;5719;42.714;23.732;2023-04-27T10:01:05;94218.06;;;14.86;39.51
11329;BME280;5719;42.714;23.732;2023-04-27T10:03:44;94218.63;;;15.17;38.78
11329;BME280;5719;42.714;23.732;2023-04-27T10:06:50;94211.28;;;15.30;37.79
11329;BME280;5719;42.714;23.732;2023-04-27T10:09:19;94210.66;;;15.55;38.17
11329;BME280;5719;42.714;23.732;2023-04-27T10:11:50;94207.00;;;16.19;41.25
11329;BME280;5719;42.714;23.732;2023-04-27T10:14:18;94209.16;;;16.85;37.77
11329;BME280;5719;42.714;23.732;2023-04-27T10:16:49;94212.72;;;16.84;37.21
11329;BME280;5719;42.714;23.732;2023-04-27T10:19:16;94208.72;;;16.28;36.32
11329;BME280;5719;42.714;23.732;2023-04-27T10:21:51;94209.72;;;16.71;38.21
11329;BME280;5719;42.714;23.732;2023-04-27T10:24:18;94208.22;;;16.94;36.76
11329;BME280;5719;42.714;23.732;2023-04-27T10:26:46;94217.47;;;16.62;36.82
11329;BME280;5719;42.714;23.732;2023-04-27T10:29:14;94215.50;;;16.56;38.40
11329;BME280;5719;42.714;23.732;2023-04-27T10:31:43;94214.81;;;16.80;36.36
11329;BME280;5719;42.714;23.732;2023-04-27T10:34:15;94213.50;;;16.76;36.45
11329;BME280;5719;42.714;23.732;2023-04-27T10:36:42;94213.34;;;16.34;36.85
11329;BME280;5719;42.714;23.732;2023-04-27T10:39:14;94203.22;;;16.31;36.37
11329;BME280;5719;42.714;23.732;2023-04-27T10:41:49;94203.69;;;15.91;37.45
11329;BME280;5719;42.714;23.732;2023-04-27T10:44:24;94201.66;;;15.40;37.37
11329;BME280;5719;42.714;23.732;2023-04-27T10:46:53;94205.31;;;16.10;37.04
11329;BME280;5719;42.714;23.732;2023-04-27T10:49:21;94198.19;;;16.38;37.23
11329;BME280;5719;42.714;23.732;2023-04-27T10:51:49;94207.22;;;15.45;38.61
11329;BME280;5719;42.714;23.732;2023-04-27T10:54:16;94204.00;;;15.06;36.56
11329;BME280;5719;42.714;23.732;2023-04-27T10:56:44;94204.31;;;14.94;38.60
11329;BME280;5719;42.714;23.732;2023-04-27T10:59:11;94210.53;;;15.47;37.65
11329;BME280;5719;42.714;23.732;2023-04-27T11:01:39;94212.97;;;15.58;36.23
11329;BME280;5719;42.714;23.732;2023-04-27T11:04:06;94204.13;;;15.69;35.52
11329;BME280;5719;42.714;23.732;2023-04-27T11:06:40;94204.91;;;14.88;36.44
11329;BME280;5719;42.714;23.732;2023-04-27T11:09:08;94209.84;;;15.45;38.75
11329;BME280;5719;42.714;23.732;2023-04-27T11:11:37;94204.75;;;15.26;35.32
11329;BME280;5719;42.714;23.732;2023-04-27T11:14:03;94196.06;;;15.80;34.50
11329;BME280;5719;42.714;23.732;2023-04-27T11:16:31;94198.28;;;16.10;36.44
11329;BME280;5719;42.714;23.732;2023-04-27T11:19:04;94200.50;;;16.58;36.67
11329;BME280;5719;42.714;23.732;2023-04-27T11:21:31;94195.78;;;16.88;34.33
11329;BME280;5719;42.714;23.732;2023-04-27T11:24:03;94204.28;;;16.90;35.10
11329;BME280;5719;42.714;23.732;2023-04-27T11:26:30;94195.88;;;17.04;35.60
11329;BME280;5719;42.714;23.732;2023-04-27T11:29:00;94201.81;;;16.62;35.65
11329;BME280;5719;42.714;23.732;2023-04-27T11:31:38;94210.31;;;15.31;37.82
11329;BME280;5719;42.714;23.732;2023-04-27T11:34:08;94208.25;;;15.07;38.78
11329;BME280;5719;42.714;23.732;2023-04-27T11:36:35;94213.63;;;15.33;38.69
11329;BME280;5719;42.714;23.732;2023-04-27T11:39:02;94210.53;;;15.47;38.11
11329;BME280;5719;42.714;23.732;2023-04-27T11:41:34;94210.88;;;15.62;39.17
11329;BME280;5719;42.714;23.732;2023-04-27T11:44:05;94208.50;;;15.86;37.36
11329;BME280;5719;42.714;23.732;2023-04-27T11:46:34;94214.25;;;15.90;35.89
11329;BME280;5719;42.714;23.732;2023-04-27T11:49:02;94210.16;;;16.05;35.85
11329;BME280;5719;42.714;23.732;2023-04-27T11:51:32;94209.94;;;16.16;35.39
11329;BME280;5719;42.714;23.732;2023-04-27T11:54:02;94211.44;;;16.44;35.39
11329;BME280;5719;42.714;23.732;2023-04-27T11:56:36;94210.91;;;15.80;35.46
11329;BME280;5719;42.714;23.732;2023-04-27T11:59:02;94218.31;;;15.57;36.97
11329;BME280;5719;42.714;23.732;2023-04-27T12:01:31;94213.38;;;15.99;37.21
11329;BME280;5719;42.714;23.732;2023-04-27T12:03:58;94215.94;;;16.34;36.21
11329;BME280;5719;42.714;23.732;2023-04-27T12:06:26;94213.53;;;16.58;36.13
11329;BME280;5719;42.714;23.732;2023-04-27T12:08:56;94211.00;;;16.66;36.84
11329;BME280;5719;42.714;23.732;2023-04-27T12:11:24;94216.53;;;16.63;36.59
11329;BME280;5719;42.714;23.732;2023-04-27T12:13:52;94214.75;;;16.11;35.70
11329;BME280;5719;42.714;23.732;2023-04-27T12:16:19;94214.59;;;15.32;36.51
11329;BME280;5719;42.714;23.732;2023-04-27T12:18:47;94210.78;;;14.53;36.96
11329;BME280;5719;42.714;23.732;2023-04-27T12:21:15;94217.06;;;14.97;36.81
11329;BME280;5719;42.714;23.732;2023-04-27T12:23:42;94224.94;;;15.51;37.36
11329;BME280;5719;42.714;23.732;2023-04-27T12:26:11;94216.13;;;15.52;36.60
11329;BME280;5719;42.714;23.732;2023-04-27T12:28:38;94217.75;;;15.81;35.00
11329;BME280;5719;42.714;23.732;2023-04-27T12:31:05;94215.44;;;16.13;33.91
11329;BME280;5719;42.714;23.732;2023-04-27T12:33:33;94214.84;;;15.84;36.50
11329;BME280;5719;42.714;23.732;2023-04-27T12:35:59;94217.72;;;15.36;37.53
11329;BME280;5719;42.714;23.732;2023-04-27T12:38:26;94217.47;;;15.29;38.09
11329;BME280;5719;42.714;23.732;2023-04-27T12:40:53;94225.16;;;15.48;39.37
11329;BME280;5719;42.714;23.732;2023-04-27T12:43:22;94214.66;;;15.50;38.30
11329;BME280;5719;42.714;23.732;2023-04-27T12:45:49;94222.03;;;15.54;39.59
11329;BME280;5719;42.714;23.732;2023-04-27T12:48:16;94226.44;;;15.72;39.17
11329;BME280;5719;42.714;23.732;2023-04-27T12:50:43;94228.97;;;15.63;38.92
11329;BME280;5719;42.714;23.732;2023-04-27T12:53:10;94215.09;;;15.63;39.68
11329;BME280;5719;42.714;23.732;2023-04-27T12:55:37;94226.00;;;15.58;38.37
11329;BME280;5719;42.714;23.732;2023-04-27T12:58:04;94219.25;;;15.83;38.27
11329;BME280;5719;42.714;23.732;2023-04-27T13:00:33;94222.16;;;15.98;38.73
11329;BME280;5719;42.714;23.732;2023-04-27T13:03:00;94227.19;;;15.00;39.81
11329;BME280;5719;42.714;23.732;2023-04-27T13:05:27;94227.56;;;15.05;40.07
11329;BME280;5719;42.714;23.732;2023-04-27T13:07:54;94228.50;;;14.77;39.71